PWSweather.com
Personal Weather Stations
Station Observations
PLANO202
Hills Of Springcreek, Plano, TX 75074

Hills Of SpringcreekPlano, TX 75074

Lat: 33.044959, Lon: -96.67735099999999

Elevation: 600

Station Type: Ambient Weather WS-1400-IP (Wireless)

High Low Average
Temperature 82.8°F28.2°C 63.0°F17.2°C 71.7°F22.1°C
Dew Point 67.0°F19.4°C 61.0°F16.1°C 63.4°F17.4°C
Winds 6.9 mph 11.1 kmh Calm Calm 1.0 mph SSE1.6 kmh SSE
Wind Gusts 10.1 mph16.3 kmh -- 2.0 mph3.2 kmh
Humidity 99% 48% 78%
Pressure 30.07 in1018.3 mb 29.91 in1012.9 mb -
Precipitation 0.28 in7.1 mm - -
Hour Temp Dew Point Humidity Winds Wind Gusts Pressure Precip Precip Rate Daily Precip Total
12:10 AM 65.1°F18.4°C 64.0°F17.8°C 95% 0.7 mph SSE1.1 kmh SSE 2.5 mph4.0 kmh 30.05 in1017.6 mb 0.00 in0.0 mm 0.00 in0.0 mm 0.00 in0.0 mm
12:21 AM 65.3°F18.5°C 64.0°F17.8°C 95% 0.2 mph S0.3 kmh S 2.5 mph4.0 kmh 30.04 in1017.3 mb 0.00 in0.0 mm 0.00 in0.0 mm 0.00 in0.0 mm
12:32 AM 65.5°F18.6°C 64.0°F17.8°C 95% Calm Calm -- 30.04 in1017.3 mb 0.00 in0.0 mm 0.00 in0.0 mm 0.00 in0.0 mm
12:43 AM 65.7°F18.7°C 64.0°F17.8°C 95% Calm Calm -- 30.03 in1016.9 mb 0.00 in0.0 mm 0.00 in0.0 mm 0.00 in0.0 mm
12:54 AM 65.7°F18.7°C 64.0°F17.8°C 95% Calm Calm -- 30.03 in1016.9 mb 0.00 in0.0 mm 0.00 in0.0 mm 0.00 in0.0 mm
01:10 AM 65.5°F18.6°C 64.0°F17.8°C 96% Calm Calm -- 30.02 in1016.6 mb 0.00 in0.0 mm 0.00 in0.0 mm 0.00 in0.0 mm
01:21 AM 65.3°F18.5°C 64.0°F17.8°C 96% Calm Calm -- 30.02 in1016.6 mb 0.00 in0.0 mm 0.00 in0.0 mm 0.00 in0.0 mm
01:32 AM 65.1°F18.4°C 64.0°F17.8°C 96% Calm Calm -- 30.02 in1016.6 mb 0.00 in0.0 mm 0.00 in0.0 mm 0.00 in0.0 mm
01:43 AM 64.9°F18.3°C 64.0°F17.8°C 97% Calm Calm -- 30.02 in1016.6 mb 0.00 in0.0 mm 0.00 in0.0 mm 0.00 in0.0 mm
01:54 AM 64.8°F18.2°C 64.0°F17.8°C 97% Calm Calm -- 30.02 in1016.6 mb 0.00 in0.0 mm 0.00 in0.0 mm 0.00 in0.0 mm
02:10 AM 64.8°F18.2°C 64.0°F17.8°C 97% Calm Calm -- 30.02 in1016.6 mb 0.00 in0.0 mm 0.00 in0.0 mm 0.00 in0.0 mm
02:21 AM 64.8°F18.2°C 64.0°F17.8°C 97% Calm Calm -- 30.03 in1016.9 mb 0.00 in0.0 mm 0.00 in0.0 mm 0.00 in0.0 mm
02:32 AM 64.6°F18.1°C 64.0°F17.8°C 97% Calm Calm -- 30.03 in1016.9 mb 0.00 in0.0 mm 0.00 in0.0 mm 0.00 in0.0 mm
02:43 AM 64.6°F18.1°C 64.0°F17.8°C 97% Calm Calm -- 30.03 in1016.9 mb 0.00 in0.0 mm 0.00 in0.0 mm 0.00 in0.0 mm
02:54 AM 64.6°F18.1°C 64.0°F17.8°C 97% Calm Calm -- 30.03 in1016.9 mb 0.00 in0.0 mm 0.00 in0.0 mm 0.00 in0.0 mm
03:10 AM 64.4°F18.0°C 64.0°F17.8°C 97% Calm Calm -- 30.03 in1016.9 mb 0.00 in0.0 mm 0.00 in0.0 mm 0.00 in0.0 mm
03:21 AM 64.2°F17.9°C 63.0°F17.2°C 97% 0.9 mph S1.4 kmh S 2.5 mph4.0 kmh 30.03 in1016.9 mb 0.00 in0.0 mm 0.00 in0.0 mm 0.00 in0.0 mm
03:32 AM 64.0°F17.8°C 63.0°F17.2°C 97% Calm Calm -- 30.02 in1016.6 mb 0.00 in0.0 mm 0.00 in0.0 mm 0.00 in0.0 mm
03:44 AM 64.0°F17.8°C 63.0°F17.2°C 97% Calm Calm -- 30.02 in1016.6 mb 0.00 in0.0 mm 0.00 in0.0 mm 0.00 in0.0 mm
03:53 AM 63.9°F17.7°C 63.0°F17.2°C 97% Calm Calm -- 30.02 in1016.6 mb 0.00 in0.0 mm 0.00 in0.0 mm 0.00 in0.0 mm
04:10 AM 63.9°F17.7°C 63.0°F17.2°C 97% Calm Calm -- 30.02 in1016.6 mb 0.00 in0.0 mm 0.00 in0.0 mm 0.00 in0.0 mm
04:21 AM 63.9°F17.7°C 63.0°F17.2°C 97% Calm Calm -- 30.03 in1016.9 mb 0.00 in0.0 mm 0.00 in0.0 mm 0.00 in0.0 mm
04:32 AM 63.9°F17.7°C 63.0°F17.2°C 97% Calm Calm -- 30.03 in1016.9 mb 0.00 in0.0 mm 0.00 in0.0 mm 0.00 in0.0 mm
04:43 AM 64.0°F17.8°C 63.0°F17.2°C 97% Calm Calm -- 30.03 in1016.9 mb 0.00 in0.0 mm 0.00 in0.0 mm 0.00 in0.0 mm
04:54 AM 64.2°F17.9°C 64.0°F17.8°C 98% Calm Calm -- 30.04 in1017.3 mb 0.00 in0.0 mm 0.00 in0.0 mm 0.00 in0.0 mm
05:10 AM 64.0°F17.8°C 63.0°F17.2°C 97% Calm Calm -- 30.03 in1016.9 mb 0.00 in0.0 mm 0.00 in0.0 mm 0.00 in0.0 mm
05:21 AM 64.0°F17.8°C 63.0°F17.2°C 97% Calm Calm -- 30.03 in1016.9 mb 0.00 in0.0 mm 0.00 in0.0 mm 0.00 in0.0 mm
05:32 AM 63.9°F17.7°C 63.0°F17.2°C 97% Calm Calm -- 30.03 in1016.9 mb 0.00 in0.0 mm 0.00 in0.0 mm 0.00 in0.0 mm
05:43 AM 63.9°F17.7°C 63.0°F17.2°C 97% Calm Calm -- 30.03 in1016.9 mb 0.00 in0.0 mm 0.00 in0.0 mm 0.00 in0.0 mm
05:54 AM 63.7°F17.6°C 63.0°F17.2°C 97% Calm Calm -- 30.03 in1016.9 mb 0.00 in0.0 mm 0.00 in0.0 mm 0.00 in0.0 mm
06:10 AM 63.3°F17.4°C 62.0°F16.7°C 97% Calm Calm -- 30.03 in1016.9 mb 0.00 in0.0 mm 0.00 in0.0 mm 0.00 in0.0 mm
06:21 AM 63.1°F17.3°C 62.0°F16.7°C 97% Calm Calm -- 30.03 in1016.9 mb 0.00 in0.0 mm 0.00 in0.0 mm 0.00 in0.0 mm
06:32 AM 63.0°F17.2°C 62.0°F16.7°C 97% Calm Calm -- 30.03 in1016.9 mb 0.00 in0.0 mm 0.00 in0.0 mm 0.00 in0.0 mm
06:44 AM 63.1°F17.3°C 62.0°F16.7°C 97% Calm Calm -- 30.03 in1016.9 mb 0.00 in0.0 mm 0.00 in0.0 mm 0.00 in0.0 mm
06:54 AM 63.3°F17.4°C 62.0°F16.7°C 97% Calm Calm -- 30.05 in1017.6 mb 0.00 in0.0 mm 0.00 in0.0 mm 0.00 in0.0 mm
07:10 AM 63.7°F17.6°C 63.0°F17.2°C 98% Calm Calm -- 30.05 in1017.6 mb 0.00 in0.0 mm 0.00 in0.0 mm 0.00 in0.0 mm
07:21 AM 64.2°F17.9°C 64.0°F17.8°C 99% Calm Calm -- 30.05 in1017.6 mb 0.00 in0.0 mm 0.00 in0.0 mm 0.00 in0.0 mm
07:32 AM 64.6°F18.1°C 64.0°F17.8°C 99% Calm Calm -- 30.05 in1017.6 mb 0.00 in0.0 mm 0.00 in0.0 mm 0.00 in0.0 mm
07:44 AM 64.9°F18.3°C 65.0°F18.3°C 99% Calm Calm -- 30.05 in1017.6 mb 0.00 in0.0 mm 0.00 in0.0 mm 0.00 in0.0 mm
07:54 AM 65.8°F18.8°C 65.0°F18.3°C 98% Calm Calm -- 30.05 in1017.6 mb 0.00 in0.0 mm 0.00 in0.0 mm 0.00 in0.0 mm
08:10 AM 68.4°F20.2°C 67.0°F19.4°C 94% 1.6 mph ESE2.6 kmh ESE 2.5 mph4.0 kmh 30.05 in1017.6 mb 0.00 in0.0 mm 0.00 in0.0 mm 0.00 in0.0 mm
08:21 AM 70.0°F21.1°C 66.0°F18.9°C 86% 0.2 mph SE0.3 kmh SE 2.5 mph4.0 kmh 30.05 in1017.6 mb 0.00 in0.0 mm 0.00 in0.0 mm 0.00 in0.0 mm
08:29 AM 70.3°F21.3°C 65.0°F18.3°C 84% Calm Calm -- 30.05 in1017.6 mb 0.00 in0.0 mm 0.00 in0.0 mm 0.00 in0.0 mm
08:42 AM 70.9°F21.6°C 65.0°F18.3°C 81% 1.8 mph SE2.9 kmh SE 2.5 mph4.0 kmh 29.91 in1012.9 mb 0.00 in0.0 mm 0.00 in0.0 mm 0.28 in7.1 mm
08:45 AM 70.9°F21.6°C 64.0°F17.8°C 79% 1.3 mph SSE2.1 kmh SSE 2.5 mph4.0 kmh 30.04 in1017.3 mb 0.00 in0.0 mm 0.00 in0.0 mm 0.28 in7.1 mm
09:10 AM 72.3°F22.4°C 62.0°F16.7°C 71% 4.9 mph ESE7.9 kmh ESE 7.6 mph12.2 kmh 29.92 in1013.2 mb 0.00 in0.0 mm 0.00 in0.0 mm 0.28 in7.1 mm
09:21 AM 72.9°F22.7°C 63.0°F17.2°C 72% 2.2 mph SE3.5 kmh SE 4.9 mph7.9 kmh 30.05 in1017.6 mb 0.00 in0.0 mm 0.00 in0.0 mm 0.00 in0.0 mm
09:32 AM 73.9°F23.3°C 64.0°F17.8°C 71% 2.5 mph SE4.0 kmh SE 4.9 mph7.9 kmh 30.05 in1017.6 mb 0.00 in0.0 mm 0.00 in0.0 mm 0.00 in0.0 mm
09:44 AM 75.0°F23.9°C 63.0°F17.2°C 66% 3.1 mph SSE5.0 kmh SSE 4.9 mph7.9 kmh 30.05 in1017.6 mb 0.00 in0.0 mm 0.00 in0.0 mm 0.00 in0.0 mm
09:54 AM 76.1°F24.5°C 64.0°F17.8°C 66% 5.6 mph SE9.0 kmh SE 7.6 mph12.2 kmh 30.05 in1017.6 mb 0.00 in0.0 mm 0.00 in0.0 mm 0.00 in0.0 mm
10:10 AM 76.6°F24.8°C 64.0°F17.8°C 66% 1.6 mph S2.6 kmh S 2.5 mph4.0 kmh 30.05 in1017.6 mb 0.00 in0.0 mm 0.00 in0.0 mm 0.00 in0.0 mm
10:21 AM 77.0°F25.0°C 64.0°F17.8°C 65% 4.7 mph E7.6 kmh E 7.6 mph12.2 kmh 30.05 in1017.6 mb 0.00 in0.0 mm 0.00 in0.0 mm 0.00 in0.0 mm
10:32 AM 77.4°F25.2°C 65.0°F18.3°C 65% 2.2 mph S3.5 kmh S 2.5 mph4.0 kmh 30.05 in1017.6 mb 0.00 in0.0 mm 0.00 in0.0 mm 0.00 in0.0 mm
10:43 AM 77.5°F25.3°C 64.0°F17.8°C 63% 1.6 mph SSE2.6 kmh SSE 2.5 mph4.0 kmh 30.05 in1017.6 mb 0.00 in0.0 mm 0.00 in0.0 mm 0.00 in0.0 mm
10:54 AM 77.9°F25.5°C 64.0°F17.8°C 63% 3.4 mph SE5.5 kmh SE 4.9 mph7.9 kmh 30.06 in1017.9 mb 0.00 in0.0 mm 0.00 in0.0 mm 0.00 in0.0 mm
11:10 AM 78.3°F25.7°C 63.0°F17.2°C 60% 4.9 mph ESE7.9 kmh ESE 7.6 mph12.2 kmh 30.06 in1017.9 mb 0.00 in0.0 mm 0.00 in0.0 mm 0.00 in0.0 mm
11:21 AM 78.4°F25.8°C 63.0°F17.2°C 59% 3.8 mph E6.1 kmh E 4.9 mph7.9 kmh 30.06 in1017.9 mb 0.00 in0.0 mm 0.00 in0.0 mm 0.00 in0.0 mm
11:32 AM 78.6°F25.9°C 63.0°F17.2°C 59% 0.9 mph SSE1.4 kmh SSE 2.5 mph4.0 kmh 30.06 in1017.9 mb 0.00 in0.0 mm 0.00 in0.0 mm 0.00 in0.0 mm
11:43 AM 79.2°F26.2°C 62.0°F16.7°C 56% 1.3 mph S2.1 kmh S 2.5 mph4.0 kmh 30.06 in1017.9 mb 0.00 in0.0 mm 0.00 in0.0 mm 0.00 in0.0 mm
11:54 AM 79.7°F26.5°C 61.0°F16.1°C 52% 2.5 mph ESE4.0 kmh ESE 4.9 mph7.9 kmh 30.05 in1017.6 mb 0.00 in0.0 mm 0.00 in0.0 mm 0.00 in0.0 mm
12:10 PM 80.4°F26.9°C 61.0°F16.1°C 52% 6.9 mph S11.1 kmh S 10.1 mph16.3 kmh 30.05 in1017.6 mb 0.00 in0.0 mm 0.00 in0.0 mm 0.00 in0.0 mm
12:21 PM 80.8°F27.1°C 62.0°F16.7°C 53% 3.1 mph ESE5.0 kmh ESE 4.9 mph7.9 kmh 30.05 in1017.6 mb 0.00 in0.0 mm 0.00 in0.0 mm 0.00 in0.0 mm
12:32 PM 81.3°F27.4°C 61.0°F16.1°C 50% 6.9 mph SSE11.1 kmh SSE 7.6 mph12.2 kmh 30.05 in1017.6 mb 0.00 in0.0 mm 0.00 in0.0 mm 0.00 in0.0 mm
12:43 PM 81.5°F27.5°C 63.0°F17.2°C 53% 2.9 mph ESE4.7 kmh ESE 4.9 mph7.9 kmh 30.05 in1017.6 mb 0.00 in0.0 mm 0.00 in0.0 mm 0.00 in0.0 mm
12:54 PM 81.1°F27.3°C 62.0°F16.7°C 53% 3.1 mph SSE5.0 kmh SSE 4.9 mph7.9 kmh 30.04 in1017.3 mb 0.00 in0.0 mm 0.00 in0.0 mm 0.00 in0.0 mm
01:10 PM 80.1°F26.7°C 62.0°F16.7°C 55% 3.4 mph S5.5 kmh S 4.9 mph7.9 kmh 30.04 in1017.3 mb 0.00 in0.0 mm 0.00 in0.0 mm 0.00 in0.0 mm
01:21 PM 80.1°F26.7°C 62.0°F16.7°C 54% Calm Calm -- 30.04 in1017.3 mb 0.00 in0.0 mm 0.00 in0.0 mm 0.00 in0.0 mm
01:32 PM 80.1°F26.7°C 61.0°F16.1°C 52% 5.4 mph ESE8.7 kmh ESE 7.6 mph12.2 kmh 30.04 in1017.3 mb 0.00 in0.0 mm 0.00 in0.0 mm 0.00 in0.0 mm
01:44 PM 79.9°F26.6°C 62.0°F16.7°C 55% Calm Calm -- 30.04 in1017.3 mb 0.00 in0.0 mm 0.00 in0.0 mm 0.00 in0.0 mm
01:54 PM 79.9°F26.6°C 61.0°F16.1°C 53% 2.9 mph S4.7 kmh S 4.9 mph7.9 kmh 30.04 in1017.3 mb 0.00 in0.0 mm 0.00 in0.0 mm 0.00 in0.0 mm
02:10 PM 80.6°F27.0°C 61.0°F16.1°C 52% 2.2 mph SSE3.5 kmh SSE 2.5 mph4.0 kmh 30.03 in1016.9 mb 0.00 in0.0 mm 0.00 in0.0 mm 0.00 in0.0 mm
02:21 PM 80.8°F27.1°C 62.0°F16.7°C 53% 1.3 mph S2.1 kmh S 2.5 mph4.0 kmh 30.03 in1016.9 mb 0.00 in0.0 mm 0.00 in0.0 mm 0.00 in0.0 mm
02:32 PM 81.0°F27.2°C 61.0°F16.1°C 51% 2.5 mph SE4.0 kmh SE 2.5 mph4.0 kmh 30.03 in1016.9 mb 0.00 in0.0 mm 0.00 in0.0 mm 0.00 in0.0 mm
02:43 PM 81.1°F27.3°C 61.0°F16.1°C 50% 2.5 mph SE4.0 kmh SE 2.5 mph4.0 kmh 30.03 in1016.9 mb 0.00 in0.0 mm 0.00 in0.0 mm 0.00 in0.0 mm
02:54 PM 82.0°F27.8°C 61.0°F16.1°C 49% 3.4 mph SE5.5 kmh SE 4.9 mph7.9 kmh 30.02 in1016.6 mb 0.00 in0.0 mm 0.00 in0.0 mm 0.00 in0.0 mm
03:10 PM 82.6°F28.1°C 63.0°F17.2°C 52% 4.0 mph SSE6.4 kmh SSE 4.9 mph7.9 kmh 30.02 in1016.6 mb 0.00 in0.0 mm 0.00 in0.0 mm 0.00 in0.0 mm
03:21 PM 82.8°F28.2°C 62.0°F16.7°C 50% 2.2 mph ESE3.5 kmh ESE 4.9 mph7.9 kmh 30.02 in1016.6 mb 0.00 in0.0 mm 0.00 in0.0 mm 0.00 in0.0 mm
03:32 PM 82.8°F28.2°C 61.0°F16.1°C 48% 2.9 mph SSW4.7 kmh SSW 4.9 mph7.9 kmh 30.02 in1016.6 mb 0.00 in0.0 mm 0.00 in0.0 mm 0.00 in0.0 mm
03:44 PM 82.6°F28.1°C 62.0°F16.7°C 50% 1.3 mph ESE2.1 kmh ESE 2.5 mph4.0 kmh 30.02 in1016.6 mb 0.00 in0.0 mm 0.00 in0.0 mm 0.00 in0.0 mm
03:54 PM 82.4°F28.0°C 63.0°F17.2°C 51% 3.8 mph S6.1 kmh S 4.9 mph7.9 kmh 30.01 in1016.3 mb 0.00 in0.0 mm 0.00 in0.0 mm 0.00 in0.0 mm
04:10 PM 82.2°F27.9°C 62.0°F16.7°C 51% 1.8 mph ESE2.9 kmh ESE 2.5 mph4.0 kmh 30.01 in1016.3 mb 0.00 in0.0 mm 0.00 in0.0 mm 0.00 in0.0 mm
04:21 PM 82.0°F27.8°C 62.0°F16.7°C 50% 3.8 mph S6.1 kmh S 4.9 mph7.9 kmh 30.01 in1016.3 mb 0.00 in0.0 mm 0.00 in0.0 mm 0.00 in0.0 mm
04:32 PM 81.5°F27.5°C 62.0°F16.7°C 51% 2.5 mph SSE4.0 kmh SSE 2.5 mph4.0 kmh 30.01 in1016.3 mb 0.00 in0.0 mm 0.00 in0.0 mm 0.00 in0.0 mm
04:42 PM 81.3°F27.4°C 61.0°F16.1°C 50% 1.6 mph SE2.6 kmh SE 2.5 mph4.0 kmh 30.01 in1016.3 mb 0.00 in0.0 mm 0.00 in0.0 mm 0.00 in0.0 mm
04:54 PM 81.1°F27.3°C 61.0°F16.1°C 50% 4.5 mph S7.2 kmh S 4.9 mph7.9 kmh 30.00 in1015.9 mb 0.00 in0.0 mm 0.00 in0.0 mm 0.00 in0.0 mm
05:10 PM 80.8°F27.1°C 62.0°F16.7°C 52% 3.8 mph ENE6.1 kmh ENE 4.9 mph7.9 kmh 30.00 in1015.9 mb 0.00 in0.0 mm 0.00 in0.0 mm 0.00 in0.0 mm
05:21 PM 80.1°F26.7°C 62.0°F16.7°C 53% 2.5 mph S4.0 kmh S 4.9 mph7.9 kmh 30.00 in1015.9 mb 0.00 in0.0 mm 0.00 in0.0 mm 0.00 in0.0 mm
05:32 PM 79.5°F26.4°C 62.0°F16.7°C 54% 3.4 mph SE5.5 kmh SE 4.9 mph7.9 kmh 30.00 in1015.9 mb 0.00 in0.0 mm 0.00 in0.0 mm 0.00 in0.0 mm
05:43 PM 79.3°F26.3°C 61.0°F16.1°C 53% 1.3 mph SSE2.1 kmh SSE 2.5 mph4.0 kmh 30.00 in1015.9 mb 0.00 in0.0 mm 0.00 in0.0 mm 0.00 in0.0 mm
05:54 PM 79.0°F26.1°C 62.0°F16.7°C 56% 0.2 mph SSW0.3 kmh SSW 2.5 mph4.0 kmh 30.01 in1016.3 mb 0.00 in0.0 mm 0.00 in0.0 mm 0.00 in0.0 mm
06:10 PM 78.1°F25.6°C 63.0°F17.2°C 60% 3.8 mph SE6.1 kmh SE 4.9 mph7.9 kmh 30.01 in1016.3 mb 0.00 in0.0 mm 0.00 in0.0 mm 0.00 in0.0 mm
06:21 PM 76.8°F24.9°C 66.0°F18.9°C 69% 4.0 mph SE6.4 kmh SE 7.6 mph12.2 kmh 30.01 in1016.3 mb 0.00 in0.0 mm 0.00 in0.0 mm 0.00 in0.0 mm
06:32 PM 75.6°F24.2°C 66.0°F18.9°C 71% 2.9 mph SSE4.7 kmh SSE 4.9 mph7.9 kmh 30.01 in1016.3 mb 0.00 in0.0 mm 0.00 in0.0 mm 0.00 in0.0 mm
06:43 PM 74.3°F23.5°C 65.0°F18.3°C 72% 2.2 mph SSE3.5 kmh SSE 4.9 mph7.9 kmh 30.01 in1016.3 mb 0.00 in0.0 mm 0.00 in0.0 mm 0.00 in0.0 mm
06:54 PM 73.8°F23.2°C 65.0°F18.3°C 73% 4.0 mph E6.4 kmh E 7.6 mph12.2 kmh 30.01 in1016.3 mb 0.00 in0.0 mm 0.00 in0.0 mm 0.00 in0.0 mm
07:10 PM 73.0°F22.8°C 65.0°F18.3°C 75% 2.2 mph S3.5 kmh S 2.5 mph4.0 kmh 30.01 in1016.3 mb 0.00 in0.0 mm 0.00 in0.0 mm 0.00 in0.0 mm
07:21 PM 72.5°F22.5°C 64.0°F17.8°C 75% 0.2 mph SE0.3 kmh SE 2.5 mph4.0 kmh 30.01 in1016.3 mb 0.00 in0.0 mm 0.00 in0.0 mm 0.00 in0.0 mm
07:32 PM 72.1°F22.3°C 65.0°F18.3°C 79% Calm Calm -- 30.01 in1016.3 mb 0.00 in0.0 mm 0.00 in0.0 mm 0.00 in0.0 mm
07:43 PM 71.8°F22.1°C 65.0°F18.3°C 80% Calm Calm -- 30.01 in1016.3 mb 0.00 in0.0 mm 0.00 in0.0 mm 0.00 in0.0 mm
07:54 PM 70.9°F21.6°C 65.0°F18.3°C 81% 0.2 mph S0.3 kmh S 2.5 mph4.0 kmh 30.02 in1016.6 mb 0.00 in0.0 mm 0.00 in0.0 mm 0.00 in0.0 mm
08:10 PM 69.8°F21.0°C 64.0°F17.8°C 81% Calm Calm -- 30.02 in1016.6 mb 0.00 in0.0 mm 0.00 in0.0 mm 0.00 in0.0 mm
08:21 PM 69.3°F20.7°C 64.0°F17.8°C 82% 1.3 mph SSE2.1 kmh SSE 2.5 mph4.0 kmh 30.02 in1016.6 mb 0.00 in0.0 mm 0.00 in0.0 mm 0.00 in0.0 mm
08:32 PM 69.1°F20.6°C 63.0°F17.2°C 82% Calm Calm -- 30.02 in1016.6 mb 0.00 in0.0 mm 0.00 in0.0 mm 0.00 in0.0 mm
08:43 PM 68.9°F20.5°C 64.0°F17.8°C 84% Calm Calm -- 30.02 in1016.6 mb 0.00 in0.0 mm 0.00 in0.0 mm 0.00 in0.0 mm
08:54 PM 68.5°F20.3°C 64.0°F17.8°C 85% Calm Calm -- 30.02 in1016.6 mb 0.00 in0.0 mm 0.00 in0.0 mm 0.00 in0.0 mm
09:10 PM 68.2°F20.1°C 64.0°F17.8°C 87% Calm Calm -- 30.05 in1017.6 mb 0.00 in0.0 mm 0.00 in0.0 mm 0.00 in0.0 mm
09:21 PM 68.0°F20.0°C 65.0°F18.3°C 89% Calm Calm -- 30.05 in1017.6 mb 0.00 in0.0 mm 0.00 in0.0 mm 0.00 in0.0 mm
09:32 PM 67.8°F19.9°C 65.0°F18.3°C 90% Calm Calm -- 30.06 in1017.9 mb 0.00 in0.0 mm 0.00 in0.0 mm 0.00 in0.0 mm
09:43 PM 67.6°F19.8°C 65.0°F18.3°C 91% Calm Calm -- 30.05 in1017.6 mb 0.00 in0.0 mm 0.00 in0.0 mm 0.01 in0.3 mm
09:54 PM 67.5°F19.7°C 65.0°F18.3°C 91% Calm Calm -- 30.07 in1018.3 mb 0.00 in0.0 mm 0.00 in0.0 mm 0.00 in0.0 mm
10:10 PM 66.9°F19.4°C 65.0°F18.3°C 92% Calm Calm -- 30.07 in1018.3 mb 0.00 in0.0 mm 0.00 in0.0 mm 0.00 in0.0 mm
10:21 PM 66.7°F19.3°C 65.0°F18.3°C 93% Calm Calm -- 30.07 in1018.3 mb 0.00 in0.0 mm 0.00 in0.0 mm 0.00 in0.0 mm
10:32 PM 66.9°F19.4°C 65.0°F18.3°C 92% Calm Calm -- 30.07 in1018.3 mb 0.00 in0.0 mm 0.00 in0.0 mm 0.00 in0.0 mm
10:43 PM 67.5°F19.7°C 65.0°F18.3°C 91% Calm Calm -- 30.07 in1018.3 mb 0.00 in0.0 mm 0.00 in0.0 mm 0.00 in0.0 mm
10:54 PM 67.6°F19.8°C 65.0°F18.3°C 91% Calm Calm -- 30.07 in1018.3 mb 0.00 in0.0 mm 0.00 in0.0 mm 0.00 in0.0 mm
11:10 PM 67.5°F19.7°C 65.0°F18.3°C 91% Calm Calm -- 30.06 in1017.9 mb 0.00 in0.0 mm 0.00 in0.0 mm 0.00 in0.0 mm
11:21 PM 67.3°F19.6°C 65.0°F18.3°C 92% Calm Calm -- 30.07 in1018.3 mb 0.00 in0.0 mm 0.00 in0.0 mm 0.00 in0.0 mm
11:32 PM 66.9°F19.4°C 65.0°F18.3°C 92% 0.7 mph SSE1.1 kmh SSE 2.5 mph4.0 kmh 30.07 in1018.3 mb 0.00 in0.0 mm 0.00 in0.0 mm 0.00 in0.0 mm
11:54 PM 66.7°F19.3°C 65.0°F18.3°C 93% 1.6 mph SE2.6 kmh SE 2.5 mph4.0 kmh 30.07 in1018.3 mb 0.00 in0.0 mm 0.00 in0.0 mm 0.00 in0.0 mm